createdAt,value
2022-09-12T00:00:18.108Z,822
2022-09-12T00:02:18.055Z,816
2022-09-12T00:04:18.065Z,823
2022-09-12T00:06:21.941Z,831
2022-09-12T00:08:18.368Z,798
2022-09-12T00:10:18.165Z,855
2022-09-12T00:12:18.023Z,766
2022-09-12T00:14:18.094Z,874
2022-09-12T00:16:18.170Z,782
2022-09-12T00:18:18.388Z,682
2022-09-12T00:20:18.150Z,740
2022-09-12T00:22:18.124Z,818
2022-09-12T00:24:18.017Z,803
2022-09-12T00:26:18.084Z,790
2022-09-12T00:28:17.971Z,812
2022-09-12T00:30:17.758Z,736
2022-09-12T00:32:17.731Z,731
2022-09-12T00:34:17.654Z,772
2022-09-12T00:36:17.376Z,763
2022-09-12T00:38:18.136Z,777
2022-09-12T00:40:18.023Z,782
2022-09-12T00:42:17.837Z,859
2022-09-12T00:44:17.862Z,748
2022-09-12T00:46:17.737Z,734
2022-09-12T00:48:17.933Z,767
2022-09-12T00:50:17.999Z,831
2022-09-12T00:52:17.900Z,775
2022-09-12T00:54:17.729Z,722
2022-09-12T00:56:17.483Z,775
2022-09-12T00:58:18.298Z,765
2022-09-12T01:00:18.221Z,760
2022-09-12T01:02:18.190Z,687
2022-09-12T01:04:18.250Z,753
2022-09-12T01:06:18.125Z,679
2022-09-12T01:08:18.033Z,679
2022-09-12T01:10:17.978Z,768
2022-09-12T01:12:17.829Z,836
2022-09-12T01:14:18.076Z,733
2022-09-12T01:16:17.966Z,742
2022-09-12T01:18:17.890Z,745
2022-09-12T01:20:17.768Z,792
2022-09-12T01:22:17.603Z,702
2022-09-12T01:24:17.353Z,637
2022-09-12T01:26:18.145Z,729
2022-09-12T01:28:18.030Z,736
2022-09-12T01:30:18.085Z,722
2022-09-12T01:32:18.012Z,717
2022-09-12T01:34:17.948Z,701
2022-09-12T01:36:17.762Z,710
2022-09-12T01:38:18.027Z,777
2022-09-12T01:40:18.240Z,721
2022-09-12T01:42:18.237Z,672
2022-09-12T01:44:18.062Z,720
2022-09-12T01:46:17.895Z,702
2022-09-12T01:48:17.697Z,765
2022-09-12T01:50:17.578Z,678
2022-09-12T01:52:17.453Z,687
2022-09-12T01:54:18.314Z,698
2022-09-12T01:56:18.012Z,718
2022-09-12T01:58:18.070Z,718
2022-09-12T02:00:17.807Z,609
2022-09-12T02:02:18.364Z,636
2022-09-12T02:04:18.283Z,593
2022-09-12T02:06:18.128Z,740
2022-09-12T02:08:17.865Z,669
2022-09-12T02:10:17.865Z,667
2022-09-12T02:12:17.672Z,672
2022-09-12T02:14:17.535Z,686
2022-09-12T02:16:17.563Z,683
2022-09-12T02:18:18.186Z,679
2022-09-12T02:20:25.957Z,696
2022-09-12T02:22:18.012Z,597
2022-09-12T02:24:17.911Z,658
2022-09-12T02:26:17.793Z,732
2022-09-12T02:28:17.651Z,656
2022-09-12T02:30:17.484Z,657
2022-09-12T02:32:18.296Z,593
2022-09-12T02:34:18.257Z,710
2022-09-12T02:36:18.113Z,697
2022-09-12T02:38:17.889Z,656
2022-09-12T02:40:17.813Z,616
2022-09-12T02:42:17.695Z,609
2022-09-12T02:44:17.482Z,635
2022-09-12T02:46:18.265Z,619
2022-09-12T02:48:18.043Z,611
2022-09-12T02:50:17.869Z,650
2022-09-12T02:52:17.805Z,679
2022-09-12T02:54:17.662Z,645
2022-09-12T02:56:17.870Z,654
2022-09-12T02:58:18.109Z,604
2022-09-12T03:00:17.966Z,585
2022-09-12T03:02:18.027Z,583
2022-09-12T03:04:17.932Z,585
2022-09-12T03:06:17.772Z,605
2022-09-12T03:08:17.587Z,606
2022-09-12T03:10:17.416Z,567
2022-09-12T03:12:18.275Z,611
2022-09-12T03:14:18.034Z,634
2022-09-12T03:16:17.875Z,562
2022-09-12T03:18:17.844Z,627
2022-09-12T03:20:17.747Z,634
2022-09-12T03:22:17.647Z,618
2022-09-12T03:24:17.480Z,624
2022-09-12T03:26:18.379Z,627
2022-09-12T03:28:18.295Z,628
2022-09-12T03:30:17.471Z,625
2022-09-12T03:32:17.393Z,573
2022-09-12T03:34:18.223Z,662
2022-09-12T03:36:18.081Z,601
2022-09-12T03:38:17.890Z,614
2022-09-12T03:40:17.709Z,657
2022-09-12T03:42:17.549Z,607
2022-09-12T03:44:17.416Z,643
2022-09-12T03:46:18.315Z,581
2022-09-12T03:48:17.501Z,571
2022-09-12T03:50:18.329Z,495
2022-09-12T03:52:20.951Z,583
2022-09-12T03:54:17.863Z,658
2022-09-12T03:56:17.876Z,603
2022-09-12T03:58:17.997Z,587
2022-09-12T04:00:19.924Z,592
2022-09-12T04:02:17.868Z,575
2022-09-12T04:04:17.698Z,602
2022-09-12T04:06:17.605Z,579
2022-09-12T04:08:18.377Z,559
2022-09-12T04:10:18.255Z,584
2022-09-12T04:12:18.100Z,601
2022-09-12T04:14:17.915Z,559
2022-09-12T04:16:17.828Z,543
2022-09-12T04:18:18.094Z,593
2022-09-12T04:20:17.644Z,580
2022-09-12T04:22:17.669Z,558
2022-09-12T04:24:17.408Z,539
2022-09-12T04:26:17.637Z,581
2022-09-12T04:28:17.388Z,553
2022-09-12T04:30:18.131Z,528
2022-09-12T04:32:17.981Z,571
2022-09-12T04:34:17.859Z,542
2022-09-12T04:36:17.651Z,570
2022-09-12T04:38:17.390Z,534
2022-09-12T04:40:18.241Z,581
2022-09-12T04:42:18.046Z,557
2022-09-12T04:44:18.241Z,576
2022-09-12T04:46:18.011Z,592
2022-09-12T04:48:17.754Z,525
2022-09-12T04:50:18.258Z,520
2022-09-12T04:52:18.050Z,520
2022-09-12T04:54:17.891Z,584
2022-09-12T04:56:18.147Z,569
2022-09-12T04:58:17.772Z,578
2022-09-12T05:00:17.548Z,532
2022-09-12T05:02:17.593Z,588
2022-09-12T05:04:17.649Z,535
2022-09-12T05:06:17.644Z,574
2022-09-12T05:08:17.443Z,543
2022-09-12T05:10:18.209Z,484
2022-09-12T05:12:18.107Z,602
2022-09-12T05:14:17.903Z,566
2022-09-12T05:16:17.672Z,569
2022-09-12T05:18:17.922Z,533
2022-09-12T05:20:17.701Z,577
2022-09-12T05:22:17.509Z,598
2022-09-12T05:24:18.330Z,571
2022-09-12T05:26:17.561Z,578
2022-09-12T05:28:17.572Z,564
2022-09-12T05:30:17.522Z,569
2022-09-12T05:32:17.589Z,536
2022-09-12T05:34:17.801Z,533
2022-09-12T05:36:17.751Z,535
2022-09-12T05:38:17.532Z,518
2022-09-12T05:40:17.561Z,573
2022-09-12T05:42:17.759Z,525
2022-09-12T05:44:17.543Z,539
2022-09-12T05:46:17.488Z,562
2022-09-12T05:48:18.226Z,578
2022-09-12T05:50:17.939Z,557
2022-09-12T05:52:17.707Z,545
2022-09-12T05:54:18.118Z,488
2022-09-12T05:56:17.923Z,506
2022-09-12T05:58:17.719Z,525
2022-09-12T06:00:17.497Z,553
2022-09-12T06:02:17.704Z,547
2022-09-12T06:04:18.205Z,593
2022-09-12T06:06:18.063Z,545
2022-09-12T06:08:17.872Z,613
2022-09-12T06:10:17.736Z,544
2022-09-12T06:12:17.461Z,655
2022-09-12T06:14:17.633Z,664
2022-09-12T06:16:17.631Z,669
2022-09-12T06:18:17.738Z,692
2022-09-12T06:20:17.754Z,592
2022-09-12T06:22:17.530Z,618
2022-09-12T06:24:17.491Z,541
2022-09-12T06:26:18.254Z,587
2022-09-12T06:28:18.001Z,583
2022-09-12T06:30:20.351Z,542
2022-09-12T06:32:18.002Z,558
2022-09-12T06:34:17.791Z,519
2022-09-12T06:36:17.821Z,537
2022-09-12T06:38:17.730Z,528
2022-09-12T06:40:17.960Z,525
2022-09-12T06:42:17.851Z,472
2022-09-12T06:44:17.630Z,504
2022-09-12T06:46:17.432Z,459
2022-09-12T06:48:18.065Z,506
2022-09-12T06:50:18.089Z,572
2022-09-12T06:52:17.846Z,542
2022-09-12T06:54:18.159Z,593
2022-09-12T06:56:17.918Z,1467
2022-09-12T06:58:17.685Z,1166
2022-09-12T07:00:17.414Z,844
2022-09-12T07:02:18.209Z,805
2022-09-12T07:04:17.950Z,671
2022-09-12T07:06:17.812Z,640
2022-09-12T07:08:17.736Z,603
2022-09-12T07:10:21.690Z,589
2022-09-12T07:12:17.988Z,0
2022-09-12T07:14:17.725Z,1555
2022-09-12T07:16:19.828Z,1200
2022-09-12T07:18:17.953Z,925
2022-09-12T07:20:17.905Z,880
2022-09-12T07:22:17.700Z,710
2022-09-12T07:24:17.800Z,514
2022-09-12T07:26:17.712Z,534
2022-09-12T07:28:17.457Z,534
2022-09-12T07:30:18.256Z,517
2022-09-12T07:32:18.055Z,519
2022-09-12T07:34:17.930Z,530
2022-09-12T07:36:17.720Z,597
2022-09-12T07:38:18.117Z,476
2022-09-12T07:40:17.905Z,528
2022-09-12T07:42:17.676Z,481
2022-09-12T07:44:17.661Z,542
2022-09-12T07:46:17.611Z,486
2022-09-12T07:48:17.606Z,464
2022-09-12T07:50:18.419Z,464
2022-09-12T07:52:18.262Z,506
2022-09-12T07:54:18.153Z,560
2022-09-12T07:56:17.908Z,566
2022-09-12T07:58:17.863Z,614
2022-09-12T08:00:17.693Z,547
2022-09-12T08:02:17.881Z,577
2022-09-12T08:04:17.784Z,542
2022-09-12T08:06:17.548Z,596
2022-09-12T08:08:18.302Z,524
2022-09-12T08:10:18.270Z,533
2022-09-12T08:12:18.210Z,579
2022-09-12T08:14:17.964Z,607
2022-09-12T08:16:17.774Z,587
2022-09-12T08:18:17.790Z,580
2022-09-12T08:20:17.570Z,591
2022-09-12T08:22:17.480Z,558
2022-09-12T08:24:18.299Z,596
2022-09-12T08:26:18.340Z,592
2022-09-12T08:28:18.132Z,568
2022-09-12T08:30:17.834Z,604
2022-09-12T08:32:17.665Z,656
2022-09-12T08:34:17.756Z,521
2022-09-12T08:36:17.574Z,541
2022-09-12T08:38:17.442Z,617
2022-09-12T08:40:18.264Z,579
2022-09-12T08:42:18.083Z,564
2022-09-12T08:44:17.918Z,587
2022-09-12T08:46:17.712Z,549
2022-09-12T08:48:17.513Z,610
2022-09-12T08:50:18.375Z,562
2022-09-12T08:52:18.104Z,492
2022-09-12T08:54:18.017Z,508
2022-09-12T08:56:17.771Z,556
2022-09-12T08:58:17.636Z,533
2022-09-12T09:00:18.172Z,601
2022-09-12T09:02:18.015Z,611
2022-09-12T09:04:17.861Z,633
2022-09-12T09:06:17.691Z,653
2022-09-12T09:08:17.686Z,655
2022-09-12T09:10:17.715Z,671
2022-09-12T09:12:17.727Z,670
2022-09-12T09:14:17.701Z,605
2022-09-12T09:16:17.592Z,715
2022-09-12T09:18:18.218Z,684
2022-09-12T09:20:18.001Z,703
2022-09-12T09:22:17.790Z,702
2022-09-12T09:24:17.730Z,716
2022-09-12T09:26:17.695Z,691
2022-09-12T09:28:17.486Z,654
2022-09-12T09:30:18.341Z,703
2022-09-12T09:32:17.533Z,702
2022-09-12T09:34:17.550Z,673
2022-09-12T09:36:17.430Z,741
2022-09-12T09:38:18.240Z,690
2022-09-12T09:40:18.412Z,733
2022-09-12T09:42:17.378Z,699
2022-09-12T09:44:18.100Z,727
2022-09-12T09:46:17.600Z,741
2022-09-12T09:48:17.410Z,699
2022-09-12T09:50:18.184Z,710
2022-09-12T09:52:18.011Z,719
2022-09-12T09:54:17.809Z,705
2022-09-12T09:56:20.320Z,726
2022-09-12T09:58:18.243Z,741
2022-09-12T10:00:18.384Z,648
2022-09-12T10:02:21.880Z,696
2022-09-12T10:04:17.464Z,663
2022-09-12T10:06:17.611Z,647
2022-09-12T10:08:17.928Z,680
2022-09-12T10:10:17.687Z,643
2022-09-12T10:12:17.404Z,623
2022-09-12T10:14:17.385Z,675
2022-09-12T10:16:18.251Z,716
2022-09-12T10:18:18.285Z,631
2022-09-12T10:20:21.317Z,715
2022-09-12T10:22:17.790Z,617
2022-09-12T10:24:17.530Z,693
2022-09-12T10:26:18.338Z,651
2022-09-12T10:28:18.091Z,697
2022-09-12T10:30:17.877Z,670
2022-09-12T10:32:18.012Z,634
2022-09-12T10:34:17.811Z,718
2022-09-12T10:36:17.669Z,656
2022-09-12T10:38:17.473Z,621
2022-09-12T10:40:18.286Z,645
2022-09-12T10:42:21.596Z,653
2022-09-12T10:44:18.121Z,619
2022-09-12T10:46:18.023Z,580
2022-09-12T10:48:17.853Z,648
2022-09-12T10:50:22.740Z,626
2022-09-12T10:52:17.729Z,657
2022-09-12T10:54:17.533Z,635
2022-09-12T10:56:17.750Z,696
2022-09-12T10:58:17.495Z,638
2022-09-12T11:00:18.335Z,608
2022-09-12T11:02:18.144Z,614
2022-09-12T11:04:17.519Z,624
2022-09-12T11:06:18.249Z,602
2022-09-12T11:08:17.966Z,643
2022-09-12T11:10:17.674Z,596
2022-09-12T11:12:17.802Z,634
2022-09-12T11:14:17.690Z,720
2022-09-12T11:16:17.517Z,760
2022-09-12T11:18:17.522Z,962
2022-09-12T11:20:18.231Z,1040
2022-09-12T11:22:18.006Z,1117
2022-09-12T11:24:17.865Z,1257
2022-09-12T11:26:17.563Z,1210
2022-09-12T11:28:17.421Z,1181
2022-09-12T11:30:17.564Z,1377
2022-09-12T11:32:17.472Z,1361
2022-09-12T11:34:17.813Z,1240
2022-09-12T11:36:17.618Z,1288
2022-09-12T11:38:18.101Z,1448
2022-09-12T11:40:17.575Z,1273
2022-09-12T11:42:17.620Z,1160
2022-09-12T11:44:17.349Z,1512
2022-09-12T11:46:18.400Z,1471
2022-09-12T11:48:18.166Z,1261
2022-09-12T11:50:17.920Z,1744
2022-09-12T11:52:17.691Z,1430
2022-09-12T11:54:17.521Z,1586
2022-09-12T11:56:18.307Z,1592
2022-09-12T11:58:17.422Z,1616
2022-09-12T12:00:18.349Z,1688
2022-09-12T12:02:18.106Z,1355
2022-09-12T12:04:17.359Z,1557
2022-09-12T12:06:18.359Z,1614
2022-09-12T12:08:18.154Z,1457
2022-09-12T12:10:17.947Z,1478
2022-09-12T12:12:18.037Z,1285
2022-09-12T12:14:17.837Z,1430
2022-09-12T12:16:18.199Z,1507
2022-09-12T12:18:18.193Z,1660
2022-09-12T12:20:17.979Z,1487
2022-09-12T12:22:17.503Z,1615
2022-09-12T12:24:18.252Z,1573
2022-09-12T12:26:18.046Z,1290
2022-09-12T12:28:17.521Z,1496
2022-09-12T12:30:18.241Z,1221
2022-09-12T12:32:18.035Z,1272
2022-09-12T12:34:17.871Z,1126
2022-09-12T12:36:17.988Z,1317
2022-09-12T12:38:18.178Z,1314
2022-09-12T12:40:17.986Z,1131
2022-09-12T12:42:19.553Z,1259
2022-09-12T12:44:17.508Z,1313
2022-09-12T12:46:18.250Z,1457
2022-09-12T12:48:18.125Z,1362
2022-09-12T12:50:17.865Z,1280
2022-09-12T12:52:17.719Z,1163
2022-09-12T12:54:17.523Z,1169
2022-09-12T12:56:18.243Z,1156
2022-09-12T12:58:18.042Z,1100
2022-09-12T13:00:18.313Z,1241
2022-09-12T13:02:18.055Z,1260
2022-09-12T13:04:17.980Z,1096
2022-09-12T13:06:18.047Z,1183
2022-09-12T13:08:17.841Z,1075
2022-09-12T13:10:17.624Z,1076
2022-09-12T13:12:17.478Z,1079
2022-09-12T13:14:18.324Z,1131
2022-09-12T13:16:18.245Z,933
2022-09-12T13:18:18.300Z,850
2022-09-12T13:20:27.698Z,749
2022-09-12T13:22:17.758Z,735
2022-09-12T13:24:17.545Z,710
2022-09-12T13:26:17.617Z,656
2022-09-12T13:28:17.819Z,680
2022-09-12T13:30:17.698Z,686
2022-09-12T13:32:17.444Z,664
2022-09-12T13:34:18.285Z,564
2022-09-12T13:36:18.183Z,608
2022-09-12T13:38:18.009Z,721
2022-09-12T13:40:17.903Z,644
2022-09-12T13:42:17.633Z,623
2022-09-12T13:44:17.394Z,641
2022-09-12T13:46:18.398Z,607
2022-09-12T13:48:18.161Z,595
2022-09-12T13:50:18.220Z,601
2022-09-12T13:52:18.012Z,599
2022-09-12T13:54:20.289Z,606
2022-09-12T13:56:18.378Z,661
2022-09-12T13:58:18.313Z,556
2022-09-12T14:00:18.257Z,663
2022-09-12T14:02:18.050Z,556
2022-09-12T14:04:17.819Z,611
2022-09-12T14:06:17.584Z,554
2022-09-12T14:08:18.384Z,585
2022-09-12T14:10:17.718Z,600
2022-09-12T14:12:17.701Z,581
2022-09-12T14:14:17.847Z,557
2022-09-12T14:16:17.840Z,597
2022-09-12T14:18:17.782Z,589
2022-09-12T14:20:17.855Z,610
2022-09-12T14:22:18.046Z,602
2022-09-12T14:24:17.748Z,586
2022-09-12T14:26:17.478Z,636
2022-09-12T14:28:20.333Z,546
2022-09-12T14:30:17.556Z,514
2022-09-12T14:32:17.400Z,574
2022-09-12T14:34:18.329Z,555
2022-09-12T14:36:18.231Z,643
2022-09-12T14:38:17.980Z,565
2022-09-12T14:40:17.982Z,584
2022-09-12T14:42:17.973Z,599
2022-09-12T14:44:17.790Z,572
2022-09-12T14:46:17.576Z,707
2022-09-12T14:48:18.192Z,600
2022-09-12T14:50:17.998Z,609
2022-09-12T14:52:17.767Z,581
2022-09-12T14:54:18.004Z,667
2022-09-12T14:56:17.791Z,666
2022-09-12T14:58:17.645Z,764
2022-09-12T15:00:17.342Z,765
2022-09-12T15:02:17.980Z,830
2022-09-12T15:04:17.855Z,833
2022-09-12T15:06:17.636Z,795
2022-09-12T15:08:17.451Z,761
2022-09-12T15:10:18.255Z,802
2022-09-12T15:12:17.422Z,811
2022-09-12T15:14:18.217Z,849
2022-09-12T15:16:18.019Z,914
2022-09-12T15:18:17.326Z,871
2022-09-12T15:20:17.526Z,905
2022-09-12T15:22:18.246Z,825
2022-09-12T15:24:17.999Z,897
2022-09-12T15:26:17.795Z,917
2022-09-12T15:28:17.491Z,913
2022-09-12T15:30:18.280Z,868
2022-09-12T15:32:18.156Z,918
2022-09-12T15:34:17.923Z,930
2022-09-12T15:36:17.871Z,920
2022-09-12T15:38:17.787Z,848
2022-09-12T15:40:17.683Z,867
2022-09-12T15:42:17.670Z,908
2022-09-12T15:44:17.588Z,933
2022-09-12T15:46:17.823Z,859
2022-09-12T15:48:17.580Z,953
2022-09-12T15:50:17.877Z,837
2022-09-12T15:52:17.787Z,848
2022-09-12T15:54:17.600Z,918
2022-09-12T15:56:17.366Z,958
2022-09-12T15:58:18.136Z,827
2022-09-12T16:00:17.833Z,908
2022-09-12T16:02:17.797Z,904
2022-09-12T16:04:17.553Z,888
2022-09-12T16:06:17.641Z,936
2022-09-12T16:08:17.460Z,957
2022-09-12T16:10:18.239Z,833
2022-09-12T16:12:18.000Z,941
2022-09-12T16:14:18.325Z,950
2022-09-12T16:16:18.078Z,909
2022-09-12T16:18:17.428Z,948
2022-09-12T16:20:18.182Z,989
2022-09-12T16:22:18.008Z,965
2022-09-12T16:24:17.828Z,951
2022-09-12T16:26:17.706Z,876
2022-09-12T16:28:17.873Z,853
2022-09-12T16:30:17.695Z,950
2022-09-12T16:32:17.447Z,984
2022-09-12T16:34:17.546Z,891
2022-09-12T16:36:18.394Z,1001
2022-09-12T16:38:18.212Z,936
2022-09-12T16:40:17.501Z,935
2022-09-12T16:42:17.321Z,909
2022-09-12T16:44:18.121Z,1000
2022-09-12T16:46:18.434Z,1018
2022-09-12T16:48:18.299Z,986
2022-09-12T16:50:18.061Z,979
2022-09-12T16:52:17.630Z,917
2022-09-12T16:54:17.360Z,967
2022-09-12T16:56:18.109Z,951
2022-09-12T16:58:17.874Z,1021
2022-09-12T17:00:17.734Z,924
2022-09-12T17:02:17.478Z,901
2022-09-12T17:04:21.733Z,978
2022-09-12T17:06:18.236Z,987
2022-09-12T17:08:18.047Z,994
2022-09-12T17:10:17.361Z,1027
2022-09-12T17:12:17.425Z,979
2022-09-12T17:14:18.185Z,942
2022-09-12T17:16:17.957Z,989
2022-09-12T17:18:17.916Z,1023
2022-09-12T17:20:17.713Z,977
2022-09-12T17:22:17.469Z,946
2022-09-12T17:24:18.229Z,953
2022-09-12T17:26:17.918Z,1014
2022-09-12T17:28:17.685Z,1030
2022-09-12T17:30:17.579Z,991
2022-09-12T17:32:17.776Z,1028
2022-09-12T17:34:17.742Z,971
2022-09-12T17:36:17.616Z,998
2022-09-12T17:38:20.207Z,868
2022-09-12T17:40:18.137Z,883
2022-09-12T17:42:17.532Z,951
2022-09-12T17:44:18.242Z,899
2022-09-12T17:46:18.089Z,905
2022-09-12T17:48:17.877Z,927
2022-09-12T17:50:31.180Z,1014
2022-09-12T17:52:18.264Z,968
2022-09-12T17:54:18.109Z,970
2022-09-12T17:56:17.851Z,1051
2022-09-12T17:58:17.942Z,980
2022-09-12T18:00:17.760Z,1025
2022-09-12T18:02:17.560Z,955
2022-09-12T18:04:17.817Z,1033
2022-09-12T18:06:17.647Z,1043
2022-09-12T18:08:17.453Z,1029
2022-09-12T18:10:18.269Z,1009
2022-09-12T18:12:18.087Z,945
2022-09-12T18:14:17.937Z,1029
2022-09-12T18:16:17.854Z,1050
2022-09-12T18:18:17.926Z,1013
2022-09-12T18:20:17.732Z,999
2022-09-12T18:22:17.802Z,1032
2022-09-12T18:24:17.565Z,972
2022-09-12T18:26:17.779Z,886
2022-09-12T18:28:17.796Z,1000
2022-09-12T18:30:21.339Z,1010
2022-09-12T18:32:17.688Z,930
2022-09-12T18:34:17.426Z,962
2022-09-12T18:36:18.191Z,1046
2022-09-12T18:38:18.202Z,982
2022-09-12T18:40:18.132Z,932
2022-09-12T18:42:18.011Z,971
2022-09-12T18:44:17.763Z,948
2022-09-12T18:46:17.982Z,970
2022-09-12T18:48:17.521Z,907
2022-09-12T18:50:18.259Z,1008
2022-09-12T18:52:19.124Z,982
2022-09-12T18:54:17.375Z,914
2022-09-12T18:56:17.622Z,1021
2022-09-12T18:58:17.872Z,878
2022-09-12T19:00:17.570Z,940
2022-09-12T19:02:17.656Z,929
2022-09-12T19:04:17.427Z,981
2022-09-12T19:06:18.387Z,937
2022-09-12T19:08:17.652Z,913
2022-09-12T19:10:17.402Z,1008
2022-09-12T19:12:18.180Z,931
2022-09-12T19:14:17.995Z,1021
2022-09-12T19:16:17.818Z,963
2022-09-12T19:18:17.754Z,947
2022-09-12T19:20:18.340Z,989
2022-09-12T19:22:18.078Z,926
2022-09-12T19:24:17.910Z,960
2022-09-12T19:26:17.826Z,924
2022-09-12T19:28:18.012Z,975
2022-09-12T19:30:17.758Z,891
2022-09-12T19:32:17.587Z,954
2022-09-12T19:34:17.349Z,1014
2022-09-12T19:36:41.108Z,1006
2022-09-12T19:38:17.487Z,929
2022-09-12T19:40:18.305Z,906
2022-09-12T19:42:18.170Z,889
2022-09-12T19:44:17.944Z,910
2022-09-12T19:46:17.708Z,1004
2022-09-12T19:48:18.017Z,911
2022-09-12T19:50:17.885Z,968
2022-09-12T19:52:17.701Z,956
2022-09-12T19:54:17.451Z,964
2022-09-12T19:56:18.185Z,961
2022-09-12T19:58:17.967Z,952
2022-09-12T20:00:17.717Z,889
2022-09-12T20:02:17.609Z,938
2022-09-12T20:04:17.495Z,961
2022-09-12T20:06:17.914Z,940
2022-09-12T20:08:17.806Z,963
2022-09-12T20:10:17.596Z,941
2022-09-12T20:12:17.704Z,886
2022-09-12T20:14:17.453Z,942
2022-09-12T20:16:21.565Z,934
2022-09-12T20:18:18.175Z,966
2022-09-12T20:20:18.025Z,950
2022-09-12T20:22:17.875Z,1006
2022-09-12T20:24:17.741Z,989
2022-09-12T20:26:18.005Z,940
2022-09-12T20:28:18.017Z,919
2022-09-12T20:30:17.954Z,980
2022-09-12T20:32:17.783Z,987
2022-09-12T20:34:17.737Z,929
2022-09-12T20:36:17.503Z,962
2022-09-12T20:38:18.259Z,927
2022-09-12T20:40:18.014Z,914
2022-09-12T20:42:17.930Z,862
2022-09-12T20:44:17.833Z,954
2022-09-12T20:46:21.045Z,930
2022-09-12T20:48:17.948Z,927
2022-09-12T20:50:17.733Z,950
2022-09-12T20:52:17.599Z,958
2022-09-12T20:54:17.337Z,959
2022-09-12T20:56:17.788Z,891
2022-09-12T20:58:17.933Z,899
2022-09-12T21:00:17.698Z,913
2022-09-12T21:02:17.595Z,959
2022-09-12T21:04:17.395Z,862
2022-09-12T21:06:18.175Z,967
2022-09-12T21:08:17.485Z,912
2022-09-12T21:10:17.405Z,913
2022-09-12T21:12:18.264Z,936
2022-09-12T21:14:17.865Z,942
2022-09-12T21:16:17.762Z,826
2022-09-12T21:18:17.742Z,996
2022-09-12T21:20:17.524Z,1023
2022-09-12T21:22:17.744Z,864
2022-09-12T21:24:17.459Z,953
2022-09-12T21:26:18.220Z,897
2022-09-12T21:28:18.060Z,880
2022-09-12T21:30:17.893Z,935
2022-09-12T21:32:18.048Z,1056
2022-09-12T21:34:17.962Z,925
2022-09-12T21:36:17.763Z,943
2022-09-12T21:38:17.613Z,928
2022-09-12T21:40:17.655Z,909
2022-09-12T21:42:17.470Z,854
2022-09-12T21:44:18.270Z,948
2022-09-12T21:46:17.534Z,870
2022-09-12T21:48:17.458Z,861
2022-09-12T21:50:18.251Z,956
2022-09-12T21:52:18.062Z,950
2022-09-12T21:54:17.882Z,913
2022-09-12T21:56:18.188Z,886
2022-09-12T21:58:18.039Z,948
2022-09-12T22:00:17.828Z,922
2022-09-12T22:02:17.631Z,942
2022-09-12T22:04:17.666Z,930
2022-09-12T22:06:20.667Z,946
2022-09-12T22:08:18.186Z,964
2022-09-12T22:10:18.084Z,901
2022-09-12T22:12:17.400Z,938
2022-09-12T22:14:18.157Z,931
2022-09-12T22:16:18.053Z,946
2022-09-12T22:18:17.941Z,916
2022-09-12T22:20:18.117Z,922
2022-09-12T22:22:17.897Z,1028
2022-09-12T22:24:17.641Z,992
2022-09-12T22:26:17.404Z,1036
2022-09-12T22:28:18.165Z,890
2022-09-12T22:30:18.220Z,942
2022-09-12T22:32:18.191Z,923
2022-09-12T22:34:17.997Z,892
2022-09-12T22:36:17.817Z,940
2022-09-12T22:38:17.876Z,949
2022-09-12T22:40:17.999Z,901
2022-09-12T22:42:17.976Z,917
2022-09-12T22:44:17.998Z,902
2022-09-12T22:46:18.011Z,913
2022-09-12T22:48:17.981Z,950
2022-09-12T22:50:18.090Z,876
2022-09-12T22:52:17.966Z,920
2022-09-12T22:54:18.036Z,870
2022-09-12T22:56:17.792Z,931
2022-09-12T22:58:17.883Z,985
2022-09-12T23:00:17.824Z,864
2022-09-12T23:02:18.270Z,940
2022-09-12T23:04:18.124Z,948
2022-09-12T23:06:17.937Z,898
2022-09-12T23:08:17.864Z,881
2022-09-12T23:10:17.884Z,804
2022-09-12T23:12:17.876Z,904
2022-09-12T23:14:17.634Z,926
2022-09-12T23:16:17.505Z,918
2022-09-12T23:18:17.423Z,841
2022-09-12T23:20:18.210Z,880
2022-09-12T23:22:17.921Z,889
2022-09-12T23:24:18.073Z,882
2022-09-12T23:26:17.863Z,842
2022-09-12T23:28:17.630Z,793
2022-09-12T23:30:17.844Z,881
2022-09-12T23:32:17.832Z,907
2022-09-12T23:34:17.506Z,969
2022-09-12T23:36:18.315Z,833
2022-09-12T23:38:18.173Z,900
2022-09-12T23:40:18.043Z,822
2022-09-12T23:42:17.875Z,884
2022-09-12T23:44:17.961Z,885
2022-09-12T23:46:17.781Z,855
2022-09-12T23:48:17.616Z,852
2022-09-12T23:50:17.349Z,950
2022-09-12T23:52:17.496Z,827
2022-09-12T23:54:18.252Z,820
2022-09-12T23:56:18.051Z,773
2022-09-12T23:58:17.680Z,760
